createdAt,value
2022-11-22T00:03:45.645Z,5.61
2022-11-22T00:08:48.757Z,4.90
2022-11-22T00:13:51.869Z,6.99
2022-11-22T00:18:54.971Z,5.25
2022-11-22T00:23:58.284Z,4.25
2022-11-22T00:29:01.295Z,6.51
2022-11-22T00:34:04.318Z,5.39
2022-11-22T00:39:07.304Z,4.40
2022-11-22T00:44:10.422Z,7.03
2022-11-22T00:49:13.419Z,5.32
2022-11-22T00:54:16.527Z,4.93
2022-11-22T00:59:19.534Z,7.71
2022-11-22T01:04:22.744Z,5.67
2022-11-22T01:09:26.520Z,5.35
2022-11-22T01:14:29.473Z,6.40
2022-11-22T01:19:32.557Z,4.82
2022-11-22T01:24:35.691Z,7.37
2022-11-22T01:29:38.698Z,5.31
2022-11-22T01:34:41.603Z,6.01
2022-11-22T01:39:44.709Z,7.16
2022-11-22T01:44:49.157Z,4.37
2022-11-22T01:49:58.142Z,6.17
2022-11-22T01:55:07.052Z,6.28
2022-11-22T02:00:14.255Z,4.60
2022-11-22T02:05:21.656Z,6.53
2022-11-22T02:10:28.759Z,4.73
2022-11-22T02:15:32.175Z,6.26
2022-11-22T02:20:36.105Z,7.19
2022-11-22T02:25:41.879Z,4.39
2022-11-22T02:30:44.982Z,5.05
2022-11-22T02:35:48.403Z,7.67
2022-11-22T02:41:06.667Z,5.81
2022-11-22T02:46:12.497Z,5.21
2022-11-22T02:51:17.361Z,7.46
2022-11-22T02:56:20.498Z,6.69
2022-11-22T03:01:23.738Z,5.65
2022-11-22T03:06:26.921Z,7.18
2022-11-22T03:11:29.948Z,5.07
2022-11-22T03:16:33.031Z,7.43
2022-11-22T03:21:36.247Z,5.91
2022-11-22T03:26:39.555Z,6.32
2022-11-22T03:31:42.459Z,7.05
2022-11-22T03:36:45.567Z,6.93
2022-11-22T03:41:48.782Z,7.70
2022-11-22T03:46:51.991Z,5.83
2022-11-22T03:51:54.893Z,6.31
2022-11-22T03:56:58.107Z,7.42
2022-11-22T04:02:01.238Z,5.29
2022-11-22T04:07:04.604Z,5.80
2022-11-22T04:12:07.738Z,5.86
2022-11-22T04:17:14.537Z,5.54
2022-11-22T04:22:17.542Z,5.48
2022-11-22T04:27:20.458Z,6.11
2022-11-22T04:32:41.881Z,6.34
2022-11-22T04:37:51.588Z,6.90
2022-11-22T04:43:13.193Z,6.80
2022-11-22T04:48:16.519Z,4.87
2022-11-22T04:53:19.612Z,5.33
2022-11-22T04:58:23.272Z,7.75
2022-11-22T05:03:26.137Z,5.68
2022-11-22T05:08:29.859Z,5.76
2022-11-22T05:13:36.439Z,7.98
2022-11-22T05:18:39.867Z,5.37
2022-11-22T05:23:55.377Z,4.57
2022-11-22T05:28:59.679Z,5.49
2022-11-22T05:34:03.327Z,5.59
2022-11-22T05:39:06.316Z,5.45
2022-11-22T05:44:09.644Z,5.10
2022-11-22T05:49:12.750Z,5.06
2022-11-22T05:54:15.859Z,7.70
2022-11-22T05:59:18.779Z,6.76
2022-11-22T06:04:21.975Z,6.48
2022-11-22T06:09:24.981Z,7.38
2022-11-22T06:14:28.305Z,4.98
2022-11-22T06:19:31.736Z,7.24
2022-11-22T06:24:35.024Z,6.75
2022-11-22T06:29:38.031Z,5.33
2022-11-22T06:34:41.160Z,7.64
2022-11-22T06:39:44.247Z,5.95
2022-11-22T06:44:47.459Z,7.69
2022-11-22T06:49:50.370Z,5.67
2022-11-22T06:54:53.570Z,5.94
2022-11-22T06:59:56.683Z,7.78
2022-11-22T07:05:24.122Z,5.85
2022-11-22T07:10:22.971Z,6.80
2022-11-22T07:15:26.080Z,6.14
2022-11-22T07:20:29.086Z,7.53
2022-11-22T07:25:32.194Z,5.33
2022-11-22T07:30:37.600Z,8.11
2022-11-22T07:35:42.917Z,6.48
2022-11-22T07:40:46.030Z,5.57
2022-11-22T07:45:49.038Z,7.99
2022-11-22T07:50:52.244Z,5.90
2022-11-22T07:55:55.269Z,7.82
2022-11-22T08:00:58.358Z,6.82
2022-11-22T08:06:02.692Z,6.00
2022-11-22T08:11:07.569Z,8.47
2022-11-22T08:16:14.474Z,6.35
2022-11-22T08:21:19.096Z,6.43
2022-11-22T08:26:22.298Z,8.07
2022-11-22T08:31:27.044Z,5.77
2022-11-22T08:36:30.668Z,8.18
2022-11-22T08:41:33.775Z,7.14
2022-11-22T08:46:36.781Z,6.37
2022-11-22T08:51:45.090Z,7.40
2022-11-22T08:56:48.124Z,6.05
2022-11-22T09:01:51.290Z,7.15
2022-11-22T09:12:18.027Z,5.53
2022-11-22T09:17:22.161Z,8.29
2022-11-22T09:22:28.379Z,7.58
2022-11-22T09:27:33.332Z,6.49
2022-11-22T09:32:36.411Z,7.27
2022-11-22T09:37:39.509Z,5.94
2022-11-22T09:43:04.224Z,7.56
2022-11-22T09:48:45.945Z,5.92
2022-11-22T09:54:13.457Z,8.34
2022-11-22T09:59:24.100Z,6.57
2022-11-22T10:04:45.138Z,8.32
2022-11-22T10:10:03.508Z,7.59
2022-11-22T10:15:31.715Z,6.93
2022-11-22T10:20:45.710Z,8.20
2022-11-22T10:26:03.493Z,6.21
2022-11-22T10:31:15.430Z,7.75
2022-11-22T10:36:30.626Z,6.72
2022-11-22T10:41:39.883Z,7.46
2022-11-22T10:46:46.266Z,7.65
2022-11-22T10:52:24.396Z,7.20
2022-11-22T10:57:46.039Z,7.51
2022-11-22T11:03:01.228Z,6.95
2022-11-22T11:08:36.601Z,8.27
2022-11-22T11:13:54.139Z,7.26
2022-11-22T11:19:13.427Z,7.83
2022-11-22T11:24:17.639Z,6.80
2022-11-22T11:29:37.644Z,6.79
2022-11-22T11:35:00.543Z,7.84
2022-11-22T11:40:25.051Z,6.56
2022-11-22T11:45:29.317Z,8.15
2022-11-22T11:50:32.298Z,6.18
2022-11-22T11:55:36.650Z,8.23
2022-11-22T12:00:40.422Z,6.87
2022-11-22T12:05:43.871Z,7.26
2022-11-22T12:11:09.144Z,7.48
2022-11-22T12:16:21.838Z,6.55
2022-11-22T12:21:39.281Z,8.21
2022-11-22T12:26:42.284Z,6.36
2022-11-22T12:31:59.727Z,7.38
2022-11-22T12:37:15.023Z,7.64
2022-11-22T12:42:29.910Z,6.80
2022-11-22T12:47:43.877Z,7.76
2022-11-22T12:52:53.229Z,6.27
2022-11-22T12:58:02.333Z,6.14
2022-11-22T13:03:23.818Z,6.13
2022-11-22T13:08:53.293Z,5.99
2022-11-22T13:14:07.722Z,7.99
2022-11-22T13:19:17.036Z,5.92
2022-11-22T13:24:40.867Z,5.48
2022-11-22T13:29:44.601Z,5.21
2022-11-22T13:35:08.044Z,5.30
2022-11-22T13:40:17.030Z,5.19
2022-11-22T13:45:24.840Z,5.35
2022-11-22T13:50:40.244Z,5.34
2022-11-22T13:55:43.447Z,5.36
2022-11-22T14:00:46.858Z,5.27
2022-11-22T14:05:52.844Z,5.70
2022-11-22T14:10:55.750Z,6.25
2022-11-22T14:16:18.514Z,6.35
2022-11-22T14:21:27.571Z,5.90
2022-11-22T14:26:46.961Z,6.00
2022-11-22T14:31:59.585Z,6.34
2022-11-22T14:37:15.299Z,7.11
2022-11-22T14:42:47.179Z,5.76
2022-11-22T14:47:53.258Z,5.63
2022-11-22T14:52:59.631Z,5.66
2022-11-22T14:58:08.343Z,5.75
2022-11-22T15:03:32.690Z,5.38
2022-11-22T15:09:39.387Z,5.34
2022-11-22T15:14:57.038Z,5.03
2022-11-22T15:58:15.373Z,6.12
2022-11-22T16:03:24.727Z,6.17
2022-11-22T16:08:32.305Z,6.19
2022-11-22T16:13:36.375Z,6.19
2022-11-22T16:18:43.990Z,6.72
2022-11-22T16:23:48.428Z,6.84
2022-11-22T16:28:53.902Z,6.69
2022-11-22T16:33:58.416Z,6.67
2022-11-22T16:39:01.646Z,6.49
2022-11-22T16:44:12.742Z,6.47
2022-11-22T16:49:21.377Z,6.45
2022-11-22T16:54:24.489Z,6.30
2022-11-22T16:59:27.410Z,6.15
2022-11-22T17:04:31.015Z,5.90
2022-11-22T17:09:34.512Z,5.26
2022-11-22T17:14:37.649Z,5.11
2022-11-22T17:19:56.237Z,5.03
2022-11-22T17:24:59.427Z,4.71
2022-11-22T17:30:02.434Z,4.60
2022-11-22T17:35:06.694Z,4.66
2022-11-22T17:40:10.822Z,4.42
2022-11-22T17:45:13.813Z,4.23
2022-11-22T17:50:17.224Z,4.56
2022-11-22T17:55:20.428Z,4.99
2022-11-22T18:00:29.702Z,5.07
2022-11-22T18:05:36.174Z,4.72
2022-11-22T18:10:39.181Z,4.34
2022-11-22T18:15:42.286Z,3.91
2022-11-22T18:20:53.934Z,4.12
2022-11-22T18:26:17.050Z,4.23
2022-11-22T18:31:27.330Z,4.44
2022-11-22T18:41:55.889Z,4.49
2022-11-22T18:46:58.999Z,4.08
2022-11-22T18:52:02.007Z,4.43
2022-11-22T18:57:05.323Z,4.33
2022-11-22T19:02:08.844Z,4.33
2022-11-22T19:07:14.463Z,4.18
2022-11-22T19:12:17.516Z,3.91
2022-11-22T19:17:22.117Z,4.32
2022-11-22T19:22:30.288Z,4.30
2022-11-22T19:27:33.403Z,3.98
2022-11-22T19:32:36.404Z,3.58
2022-11-22T19:37:39.616Z,3.56
2022-11-22T19:42:42.929Z,3.61
2022-11-22T19:47:46.132Z,3.85
2022-11-22T19:52:49.142Z,3.84
2022-11-22T19:57:52.150Z,4.06
2022-11-22T20:02:55.256Z,3.56
2022-11-22T20:07:59.420Z,3.59
2022-11-22T20:13:02.885Z,3.40
2022-11-22T20:18:06.736Z,3.47
2022-11-22T20:23:09.841Z,3.80
2022-11-22T20:28:12.846Z,3.87
2022-11-22T20:33:19.438Z,4.01
2022-11-22T20:38:23.163Z,4.08
2022-11-22T20:43:26.707Z,3.72
2022-11-22T20:48:31.665Z,3.55
2022-11-22T20:53:35.152Z,3.30
2022-11-22T20:58:38.785Z,3.54
2022-11-22T21:03:42.668Z,3.20
2022-11-22T21:08:46.367Z,3.08
2022-11-22T21:13:50.614Z,3.17
2022-11-22T21:19:01.563Z,3.35
2022-11-22T21:24:06.167Z,3.32
2022-11-22T21:29:16.475Z,3.55
2022-11-22T21:34:19.988Z,3.93
2022-11-22T21:39:23.307Z,3.74
2022-11-22T21:44:26.308Z,3.60
2022-11-22T21:49:29.213Z,3.72
2022-11-22T21:54:33.301Z,3.84
2022-11-22T21:59:36.558Z,3.63
2022-11-22T22:04:39.565Z,3.52
2022-11-22T22:09:42.470Z,3.54
2022-11-22T22:14:45.576Z,3.58
2022-11-22T22:19:49.715Z,3.75
2022-11-22T22:24:52.728Z,3.63
2022-11-22T22:29:55.825Z,3.58
2022-11-22T22:34:58.826Z,3.44
2022-11-22T22:40:02.438Z,3.53
2022-11-22T22:45:06.200Z,3.29
2022-11-22T22:50:09.795Z,2.82
2022-11-22T22:55:12.903Z,2.85
2022-11-22T23:00:16.826Z,2.79
2022-11-22T23:05:19.940Z,2.93
2022-11-22T23:10:23.150Z,2.83
2022-11-22T23:15:50.875Z,2.76
2022-11-22T23:20:49.334Z,2.87
2022-11-22T23:25:52.345Z,2.99
2022-11-22T23:30:58.011Z,3.20
2022-11-22T23:36:03.170Z,3.13
2022-11-22T23:41:06.688Z,3.26
2022-11-22T23:46:17.786Z,3.34
2022-11-22T23:51:21.710Z,3.21
2022-11-22T23:56:25.770Z,3.38
